Time;durP1;ratioP1;P1;durP2;ratioP2;P2;SDS_P1;SDS_P2;PMS_P1;PMS_P2;Temp;Humidity;BMP_temperature;BMP_pressure;BME280_temperature;BME280_humidity;BME280_pressure;Samples;Min_cycle;Max_cycle;Signal;HPM_P1;HPM_P2
2022/01/14 00:00:59;;;;;;;24.27;13.13;;;3.10;58.90;;;;;;4995113;28;20057;-75
2022/01/14 00:03:25;;;;;;;24.10;12.63;;;3.10;59.10;;;;;;4994766;28;20062;-75
2022/01/14 00:05:51;;;;;;;21.77;12.70;;;3.10;59.40;;;;;;4993316;28;20093;-75
2022/01/14 00:08:16;;;;;;;20.93;10.97;;;3.00;59.60;;;;;;4994623;28;20056;-75
2022/01/14 00:10:48;;;;;;;21.97;11.03;;;3.00;59.80;;;;;;4993897;28;20029;-74
2022/01/14 00:13:38;;;;;;;17.50;9.87;;;3.10;59.80;;;;;;4995138;28;20102;-74
2022/01/14 00:16:00;;;;;;;16.97;9.43;;;3.10;59.40;;;;;;4994645;28;20042;-75
2022/01/14 00:18:25;;;;;;;18.90;10.57;;;3.20;58.80;;;;;;4994917;28;20032;-75
2022/01/14 00:20:51;;;;;;;19.10;11.30;;;3.20;58.80;;;;;;4995063;28;20026;-75
2022/01/14 00:23:18;;;;;;;19.13;11.63;;;3.10;58.70;;;;;;4994877;28;20023;-74
2022/01/14 00:33:56;;;;;;;21.07;11.93;;;3.00;60.00;;;;;;4994510;28;20045;-74
2022/01/14 00:36:21;;;;;;;18.77;10.53;;;2.90;59.90;;;;;;4994790;28;20454;-75
2022/01/14 00:38:47;;;;;;;15.53;8.93;;;2.90;60.00;;;;;;4994907;28;20030;-75
2022/01/14 00:41:14;;;;;;;17.67;9.93;;;2.90;60.00;;;;;;4994615;28;20031;-75
2022/01/14 00:43:41;;;;;;;15.53;9.43;;;2.90;60.20;;;;;;4994223;28;20459;-75
2022/01/14 00:46:08;;;;;;;17.50;10.47;;;2.90;60.00;;;;;;4994391;28;20505;-75
2022/01/14 00:48:33;;;;;;;20.47;11.00;;;2.90;59.70;;;;;;4994309;28;20035;-75
2022/01/14 00:50:59;;;;;;;16.70;10.03;;;2.90;59.90;;;;;;4994502;28;20112;-74
2022/01/14 00:53:25;;;;;;;25.30;11.80;;;2.90;60.20;;;;;;4994667;28;20026;-74
2022/01/14 00:55:58;;;;;;;25.23;12.20;;;3.00;59.50;;;;;;4994122;28;20415;-75
2022/01/14 01:01:08;;;;;;;24.83;12.63;;;2.90;59.50;;;;;;4994113;28;20443;-74
2022/01/14 01:03:35;;;;;;;25.10;14.43;;;2.90;59.70;;;;;;4993061;28;20026;-75
2022/01/14 01:06:01;;;;;;;26.50;14.37;;;2.90;59.70;;;;;;4994005;28;20026;-74
2022/01/14 01:08:29;;;;;;;27.53;14.60;;;2.80;59.70;;;;;;4994287;28;20100;-75
2022/01/14 01:10:54;;;;;;;25.33;14.03;;;2.80;59.70;;;;;;4992838;28;20023;-74
2022/01/14 01:13:31;;;;;;;25.07;13.97;;;2.80;59.80;;;;;;4994052;28;20035;-74
2022/01/14 01:15:57;;;;;;;22.70;12.73;;;2.80;59.60;;;;;;4993933;28;20014;-74
2022/01/14 01:18:23;;;;;;;21.63;13.13;;;2.80;59.80;;;;;;4993950;28;20027;-74
2022/01/14 01:20:50;;;;;;;21.77;11.60;;;2.80;59.80;;;;;;4993398;28;20018;-75
2022/01/14 01:23:15;;;;;;;22.37;13.00;;;2.80;59.70;;;;;;4993819;28;20545;-74
2022/01/14 01:25:47;;;;;;;20.27;11.50;;;2.80;59.80;;;;;;4993575;28;20052;-75
2022/01/14 01:28:13;;;;;;;21.20;12.27;;;2.80;59.70;;;;;;4993570;28;20105;-75
2022/01/14 01:30:49;;;;;;;24.33;13.67;;;2.80;59.80;;;;;;4993581;28;20101;-74
2022/01/14 01:33:15;;;;;;;25.57;14.50;;;2.80;59.70;;;;;;4993582;28;20026;-75
2022/01/14 01:35:41;;;;;;;30.03;15.10;;;2.70;59.60;;;;;;4993545;28;20120;-75
2022/01/14 01:38:06;;;;;;;29.37;17.07;;;2.70;59.90;;;;;;4993999;28;20145;-75
2022/01/14 01:40:32;;;;;;;32.80;17.97;;;2.70;59.80;;;;;;4993724;28;20094;-74
2022/01/14 01:43:02;;;;;;;33.00;18.83;;;2.60;59.50;;;;;;4993928;28;20023;-75
2022/01/14 01:45:28;;;;;;;30.87;19.13;;;2.70;59.80;;;;;;4993684;28;20018;-74
2022/01/14 01:47:54;;;;;;;35.23;19.40;;;2.60;59.60;;;;;;4993556;28;20529;-75
2022/01/14 01:50:26;;;;;;;31.23;18.37;;;2.60;59.70;;;;;;4993793;28;20026;-75
2022/01/14 01:52:52;;;;;;;35.30;19.47;;;2.60;59.80;;;;;;4993571;28;20399;-74
2022/01/14 01:55:20;;;;;;;34.37;19.27;;;2.60;59.60;;;;;;4993154;28;20027;-74
2022/01/14 01:57:46;;;;;;;34.63;19.17;;;2.60;59.60;;;;;;4991890;28;20026;-74
2022/01/14 02:00:15;;;;;;;32.67;18.93;;;2.50;59.90;;;;;;4990510;28;20475;-75
2022/01/14 02:02:42;;;;;;;36.13;19.00;;;2.50;60.40;;;;;;4990825;28;20101;-75
2022/01/14 02:05:08;;;;;;;34.43;19.10;;;2.40;60.60;;;;;;4992044;28;20023;-74
2022/01/14 02:07:34;;;;;;;34.03;19.07;;;2.40;60.70;;;;;;4993449;28;20026;-75
2022/01/14 02:10:02;;;;;;;37.10;20.80;;;2.30;60.90;;;;;;4993488;28;20023;-75
2022/01/14 02:12:36;;;;;;;33.37;20.17;;;2.30;60.90;;;;;;4993275;28;20491;-75
2022/01/14 02:15:13;;;;;;;35.13;19.93;;;2.30;61.10;;;;;;4993304;28;20105;-75
2022/01/14 02:23:03;;;;;;;30.23;18.47;;;2.20;60.90;;;;;;4993134;28;20029;-75
2022/01/14 02:25:32;;;;;;;35.50;18.90;;;2.20;61.10;;;;;;4993328;28;20029;-75
2022/01/14 02:27:59;;;;;;;34.23;18.70;;;2.20;61.10;;;;;;4992890;28;20027;-74
2022/01/14 02:30:25;;;;;;;36.90;20.20;;;2.20;61.00;;;;;;4993266;28;20033;-75
2022/01/14 02:32:51;;;;;;;32.07;18.40;;;2.20;61.20;;;;;;4992016;28;20039;-75
2022/01/14 02:35:17;;;;;;;31.17;17.43;;;2.20;61.10;;;;;;4992769;28;20046;-75
2022/01/14 02:37:43;;;;;;;36.90;18.37;;;2.30;60.80;;;;;;4993979;28;20038;-75
2022/01/14 02:40:09;;;;;;;30.27;16.70;;;2.20;60.80;;;;;;4996682;28;20441;-74
2022/01/14 02:42:36;;;;;;;30.17;17.53;;;2.30;61.00;;;;;;4996537;28;20093;-74
2022/01/14 02:45:06;;;;;;;30.67;17.17;;;2.30;60.60;;;;;;4996690;28;20030;-75
2022/01/14 02:47:32;;;;;;;32.87;17.30;;;2.20;60.60;;;;;;4996663;28;20026;-75
2022/01/14 02:49:58;;;;;;;29.30;18.30;;;2.20;60.90;;;;;;4996754;28;20048;-75
2022/01/14 02:53:14;;;;;;;34.30;18.20;;;2.10;61.00;;;;;;4996436;28;20399;-75
2022/01/14 02:55:17;;;;;;;32.23;17.53;;;2.10;61.30;;;;;;4993336;28;20031;-75
2022/01/14 02:57:45;;;;;;;31.10;17.13;;;2.10;61.80;;;;;;4996116;28;20402;-75
2022/01/14 03:00:12;;;;;;;33.17;17.60;;;2.00;61.80;;;;;;4995052;28;20035;-75
2022/01/14 03:02:42;;;;;;;34.37;17.17;;;2.10;61.80;;;;;;4996290;28;20030;-75
2022/01/14 03:05:08;;;;;;;26.60;15.63;;;2.10;61.80;;;;;;4996356;28;20029;-75
2022/01/14 03:07:36;;;;;;;28.13;16.47;;;2.00;62.00;;;;;;4996406;28;20049;-75
2022/01/14 03:10:03;;;;;;;30.10;15.77;;;2.00;61.80;;;;;;4996229;28;20026;-75
2022/01/14 03:12:29;;;;;;;26.83;15.77;;;2.00;61.80;;;;;;4996273;28;20035;-74
2022/01/14 03:14:54;;;;;;;27.87;15.67;;;2.00;62.00;;;;;;4996022;28;20383;-75
2022/01/14 03:17:20;;;;;;;26.00;15.37;;;2.00;62.00;;;;;;4996182;28;20041;-75
2022/01/14 03:19:47;;;;;;;24.60;15.20;;;2.10;61.70;;;;;;4996082;28;20030;-74
2022/01/14 03:22:24;;;;;;;24.30;14.60;;;2.00;61.70;;;;;;4996058;28;20096;-75
2022/01/14 03:27:15;;;;;;;27.97;14.80;;;2.00;61.50;;;;;;4995935;28;20356;-75
2022/01/14 03:29:41;;;;;;;31.93;15.50;;;2.00;61.40;;;;;;4995956;28;20468;-75
2022/01/14 03:32:07;;;;;;;24.43;14.13;;;2.00;61.30;;;;;;4995871;28;20041;-75
2022/01/14 03:34:33;;;;;;;26.33;15.07;;;2.00;61.40;;;;;;4995513;28;20046;-75
2022/01/14 03:36:59;;;;;;;23.17;13.57;;;2.00;61.60;;;;;;4995893;28;20085;-75
2022/01/14 03:39:25;;;;;;;24.57;14.47;;;1.90;62.00;;;;;;4995786;28;20038;-75
2022/01/14 03:41:51;;;;;;;26.27;14.13;;;1.90;62.20;;;;;;4995933;28;20026;-75
2022/01/14 03:44:18;;;;;;;24.80;13.73;;;1.80;62.20;;;;;;4995814;28;20037;-74
2022/01/14 03:46:44;;;;;;;24.33;13.30;;;1.80;62.60;;;;;;4995354;28;20023;-75
2022/01/14 03:49:10;;;;;;;24.50;13.67;;;1.80;62.80;;;;;;4995450;28;20027;-75
2022/01/14 03:51:35;;;;;;;25.30;13.90;;;1.80;63.00;;;;;;4995275;28;20089;-74
2022/01/14 03:54:01;;;;;;;27.23;14.73;;;1.80;63.00;;;;;;4995740;28;20033;-74
2022/01/14 03:56:27;;;;;;;25.60;13.97;;;1.80;63.00;;;;;;4995329;28;20076;-74
2022/01/14 03:58:53;;;;;;;24.53;13.63;;;1.70;62.90;;;;;;4993991;28;20364;-75
2022/01/14 04:01:21;;;;;;;27.47;14.50;;;1.70;63.20;;;;;;4995362;28;20034;-74
2022/01/14 04:03:48;;;;;;;23.37;12.90;;;1.80;63.00;;;;;;4995164;28;20038;-74
2022/01/14 04:06:15;;;;;;;23.43;13.30;;;1.80;62.70;;;;;;4995315;28;20479;-74
2022/01/14 04:08:41;;;;;;;23.27;12.10;;;1.80;63.20;;;;;;4995167;28;20105;-74
2022/01/14 04:11:08;;;;;;;24.00;12.70;;;1.80;62.70;;;;;;4995153;28;20053;-74
2022/01/14 04:13:44;;;;;;;20.37;12.33;;;1.80;63.20;;;;;;4994202;28;20554;-74
2022/01/14 04:16:10;;;;;;;22.97;13.17;;;1.70;63.40;;;;;;4995011;28;20387;-74
2022/01/14 04:18:36;;;;;;;22.37;12.93;;;1.80;63.30;;;;;;4995205;28;20509;-75
2022/01/14 04:21:02;;;;;;;24.83;13.20;;;1.90;62.80;;;;;;4995129;28;20029;-74
2022/01/14 04:23:28;;;;;;;23.37;13.07;;;1.80;62.50;;;;;;4995094;28;20030;-75
2022/01/14 04:25:55;;;;;;;22.97;13.50;;;1.80;62.20;;;;;;4994946;28;20475;-74
2022/01/14 04:28:23;;;;;;;21.20;12.83;;;1.80;62.30;;;;;;4995032;28;20034;-74
2022/01/14 04:30:54;;;;;;;26.30;14.37;;;1.80;62.30;;;;;;4993656;28;20084;-74
2022/01/14 04:33:23;;;;;;;24.40;12.93;;;1.70;62.70;;;;;;4994601;28;20045;-74
2022/01/14 04:35:49;;;;;;;26.47;14.23;;;1.70;62.80;;;;;;4994562;28;20407;-74
2022/01/14 04:38:15;;;;;;;23.80;13.73;;;1.60;63.20;;;;;;4994793;28;20027;-74
2022/01/14 04:40:41;;;;;;;25.27;13.63;;;1.60;63.50;;;;;;4994363;28;20057;-74
2022/01/14 04:43:07;;;;;;;27.43;12.90;;;1.60;63.50;;;;;;4994694;28;20076;-74
2022/01/14 04:48:04;;;;;;;27.13;13.90;;;1.60;63.80;;;;;;4994843;28;20022;-74
2022/01/14 04:50:30;;;;;;;24.97;12.47;;;1.60;64.60;;;;;;4994458;28;20026;-74
2022/01/14 04:52:56;;;;;;;29.40;12.97;;;1.60;64.10;;;;;;4994369;28;20045;-74
2022/01/14 04:55:24;;;;;;;22.93;12.77;;;1.50;64.50;;;;;;4994324;28;20026;-74
2022/01/14 04:57:50;;;;;;;20.17;12.47;;;1.60;63.50;;;;;;4994432;28;20030;-74
2022/01/14 05:00:19;;;;;;;32.57;14.13;;;1.60;63.40;;;;;;4994368;28;20085;-74
2022/01/14 05:02:44;;;;;;;21.70;11.43;;;1.50;63.10;;;;;;4993579;28;20023;-74
2022/01/14 05:05:11;;;;;;;20.20;11.80;;;1.50;63.30;;;;;;4994159;28;20030;-74
2022/01/14 05:07:37;;;;;;;23.40;12.60;;;1.40;63.30;;;;;;4994403;28;20101;-74
2022/01/14 05:12:33;;;;;;;21.27;12.13;;;1.40;63.50;;;;;;4993955;28;20388;-74
2022/01/14 05:14:59;;;;;;;24.63;13.07;;;1.40;63.80;;;;;;4993851;28;20372;-74
2022/01/14 05:17:25;;;;;;;22.50;12.10;;;1.40;63.60;;;;;;4993879;28;20448;-74
2022/01/14 05:19:51;;;;;;;21.63;12.87;;;1.40;63.90;;;;;;4993917;28;20098;-74
2022/01/14 05:22:17;;;;;;;23.97;12.40;;;1.40;64.20;;;;;;4994119;28;20033;-74
2022/01/14 05:24:44;;;;;;;22.27;12.10;;;1.40;64.20;;;;;;4992778;28;20470;-74
2022/01/14 05:27:10;;;;;;;20.07;11.60;;;1.30;63.90;;;;;;4994119;28;20034;-75
2022/01/14 05:29:35;;;;;;;24.00;11.90;;;1.40;63.90;;;;;;4994147;28;20482;-74
2022/01/14 05:32:08;;;;;;;18.57;11.47;;;1.30;63.90;;;;;;4993892;28;20117;-74
2022/01/14 05:34:35;;;;;;;24.50;12.20;;;1.30;63.90;;;;;;4993405;28;20121;-74
2022/01/14 05:37:03;;;;;;;23.97;11.20;;;1.30;64.20;;;;;;4994007;28;20026;-75
2022/01/14 05:39:29;;;;;;;25.03;12.07;;;1.30;64.60;;;;;;4994047;28;20030;-74
2022/01/14 05:41:56;;;;;;;20.83;11.33;;;1.30;64.90;;;;;;4993787;28;20019;-74
2022/01/14 05:44:24;;;;;;;23.37;11.33;;;1.30;64.80;;;;;;4993907;28;20045;-74
2022/01/14 05:46:51;;;;;;;20.60;11.73;;;1.30;65.10;;;;;;4993809;28;20364;-74
2022/01/14 05:49:17;;;;;;;21.23;11.37;;;1.30;64.70;;;;;;4993831;28;20387;-74
2022/01/14 05:51:44;;;;;;;22.67;11.17;;;1.30;64.40;;;;;;4993404;28;20026;-74
2022/01/14 05:54:09;;;;;;;20.87;12.00;;;1.30;64.60;;;;;;4993620;28;20058;-74
2022/01/14 05:56:35;;;;;;;20.37;11.60;;;1.30;64.70;;;;;;4993752;28;20055;-74
2022/01/14 05:59:01;;;;;;;22.30;10.73;;;1.30;64.90;;;;;;4993518;28;20605;-74
2022/01/14 06:01:30;;;;;;;21.03;11.67;;;1.30;65.00;;;;;;4993460;28;20356;-74
2022/01/14 06:03:59;;;;;;;23.67;11.87;;;1.30;65.10;;;;;;4993411;28;20029;-74
2022/01/14 06:06:25;;;;;;;23.67;11.40;;;1.30;65.30;;;;;;4993299;28;20029;-74
2022/01/14 06:08:51;;;;;;;21.87;11.63;;;1.30;65.30;;;;;;4993570;28;20379;-75
2022/01/14 06:11:17;;;;;;;17.53;10.87;;;1.30;65.30;;;;;;4993326;28;20505;-74
2022/01/14 06:13:43;;;;;;;20.10;10.53;;;1.30;65.70;;;;;;4995919;28;20483;-74
2022/01/14 06:16:08;;;;;;;21.53;11.20;;;1.30;65.60;;;;;;4997270;28;20029;-74
2022/01/14 06:18:34;;;;;;;21.20;11.17;;;1.30;66.60;;;;;;4997446;28;20022;-74
2022/01/14 06:21:00;;;;;;;21.23;11.60;;;1.30;65.40;;;;;;4997241;28;20026;-74
2022/01/14 06:23:26;;;;;;;25.77;11.67;;;1.30;65.10;;;;;;4997257;28;20490;-74
2022/01/14 06:25:51;;;;;;;24.03;13.23;;;1.30;65.00;;;;;;4997025;28;20031;-74
2022/01/14 06:28:17;;;;;;;23.30;12.13;;;1.30;64.90;;;;;;4997128;28;20113;-74
2022/01/14 06:30:43;;;;;;;22.00;11.70;;;1.30;64.50;;;;;;4996924;28;20023;-74
2022/01/14 06:33:09;;;;;;;25.67;12.17;;;1.30;64.70;;;;;;4997192;28;20030;-74
2022/01/14 06:35:34;;;;;;;23.23;13.00;;;1.30;64.70;;;;;;4996577;28;20511;-74
2022/01/14 06:38:00;;;;;;;21.67;12.00;;;1.20;65.00;;;;;;4997076;28;20475;-74
2022/01/14 06:40:27;;;;;;;22.90;12.33;;;1.20;65.50;;;;;;4995825;28;20113;-74
2022/01/14 06:42:53;;;;;;;25.73;12.10;;;1.20;65.60;;;;;;4996778;28;20072;-74
2022/01/14 06:45:19;;;;;;;20.13;12.37;;;1.20;65.50;;;;;;4996723;28;20097;-75
2022/01/14 06:47:45;;;;;;;25.40;12.13;;;1.10;65.60;;;;;;4995589;28;20026;-74
2022/01/14 06:50:10;;;;;;;28.00;13.17;;;1.10;65.60;;;;;;4996617;28;20023;-75
2022/01/14 06:52:37;;;;;;;24.70;13.37;;;1.10;65.70;;;;;;4996488;28;20031;-75
2022/01/14 06:55:03;;;;;;;23.50;13.23;;;1.10;66.20;;;;;;4996478;28;20026;-75
2022/01/14 06:57:29;;;;;;;27.83;11.23;;;1.10;66.40;;;;;;4996222;28;20128;-74
2022/01/14 06:59:55;;;;;;;31.07;13.77;;;1.10;66.70;;;;;;4996447;28;20482;-74
2022/01/14 07:02:20;;;;;;;30.53;15.53;;;1.10;67.10;;;;;;4996143;28;20026;-75
2022/01/14 07:04:46;;;;;;;27.60;13.87;;;1.10;66.80;;;;;;4993639;28;20034;-74
2022/01/14 07:07:12;;;;;;;32.40;13.70;;;1.10;66.70;;;;;;4995290;28;20100;-75
2022/01/14 07:09:55;;;;;;;29.03;13.77;;;1.20;66.40;;;;;;4994957;28;20034;-75
2022/01/14 07:12:31;;;;;;;27.80;14.13;;;1.20;65.90;;;;;;4996048;28;20035;-74
2022/01/14 07:14:58;;;;;;;34.43;15.37;;;1.20;65.80;;;;;;4996019;28;20447;-75
2022/01/14 07:17:25;;;;;;;33.23;14.67;;;1.30;65.70;;;;;;4995633;28;20046;-74
2022/01/14 07:19:54;;;;;;;32.40;14.87;;;1.20;65.60;;;;;;4995586;28;20027;-75
2022/01/14 07:22:20;;;;;;;37.00;15.60;;;1.20;65.50;;;;;;4996084;28;20027;-75
2022/01/14 07:24:46;;;;;;;29.97;15.77;;;1.20;65.90;;;;;;4994943;28;20395;-75
2022/01/14 07:27:13;;;;;;;38.10;16.07;;;1.20;66.20;;;;;;4995793;28;20450;-75
2022/01/14 07:29:39;;;;;;;29.93;15.83;;;1.20;66.00;;;;;;4995864;28;20026;-73
2022/01/14 07:32:05;;;;;;;32.03;15.93;;;1.20;66.60;;;;;;4995967;28;20030;-71
2022/01/14 07:34:31;;;;;;;38.00;22.20;;;1.20;66.50;;;;;;4992948;28;20050;-74
2022/01/14 07:36:57;;;;;;;32.80;19.00;;;1.20;66.70;;;;;;4991970;28;20046;-76
2022/01/14 07:39:23;;;;;;;30.77;15.73;;;1.30;67.00;;;;;;4990638;28;20084;-77
2022/01/14 07:41:52;;;;;;;33.43;16.47;;;1.40;67.00;;;;;;4994009;28;20030;-75
2022/01/14 07:44:18;;;;;;;38.43;16.67;;;1.50;66.80;;;;;;4995199;28;20507;-75
2022/01/14 07:46:44;;;;;;;30.47;16.03;;;1.60;66.20;;;;;;4994591;28;20491;-75
2022/01/14 07:49:10;;;;;;;34.17;16.47;;;1.70;66.10;;;;;;4993198;28;20080;-75
2022/01/14 07:51:36;;;;;;;38.77;17.30;;;1.80;65.30;;;;;;4995295;28;20452;-75
2022/01/14 07:54:05;;;;;;;32.20;16.30;;;1.80;65.00;;;;;;4995044;28;20050;-75
2022/01/14 07:56:39;;;;;;;29.97;15.93;;;1.80;64.90;;;;;;4995003;28;20018;-75
2022/01/14 07:59:06;;;;;;;27.33;15.40;;;1.80;65.00;;;;;;4995122;28;20022;-74
2022/01/14 08:01:35;;;;;;;30.07;16.50;;;1.90;65.80;;;;;;4994987;28;20025;-74
2022/01/14 08:04:01;;;;;;;31.73;14.70;;;2.00;65.10;;;;;;4994465;28;20037;-75
2022/01/14 08:06:31;;;;;;;23.63;13.53;;;2.00;65.40;;;;;;4994837;28;20479;-75
2022/01/14 08:08:57;;;;;;;28.33;15.00;;;2.00;65.40;;;;;;4994608;28;20018;-75
2022/01/14 08:11:22;;;;;;;31.00;14.07;;;2.10;65.60;;;;;;4994459;28;20433;-73
2022/01/14 08:13:48;;;;;;;30.17;14.30;;;2.10;65.70;;;;;;4993355;28;20041;-75
2022/01/14 08:16:14;;;;;;;52.80;16.37;;;2.20;66.10;;;;;;4991901;28;20084;-75
2022/01/14 08:18:39;;;;;;;34.33;16.37;;;2.20;65.80;;;;;;4992872;28;20061;-74
2022/01/14 08:21:05;;;;;;;34.50;15.30;;;2.30;65.10;;;;;;4994523;28;20383;-75
2022/01/14 08:23:31;;;;;;;40.40;14.80;;;2.40;65.30;;;;;;4993574;28;20117;-73
2022/01/14 08:25:57;;;;;;;44.70;18.30;;;2.40;65.40;;;;;;4994637;28;20488;-73
2022/01/14 08:28:24;;;;;;;45.17;18.30;;;2.50;65.50;;;;;;4994598;28;20108;-73
2022/01/14 08:30:50;;;;;;;34.13;16.63;;;2.60;64.90;;;;;;4994642;28;20038;-73
2022/01/14 08:33:27;;;;;;;36.80;15.67;;;2.60;65.10;;;;;;4993947;28;20042;-76
2022/01/14 08:35:53;;;;;;;42.80;19.13;;;2.70;65.10;;;;;;4993814;28;20054;-73
2022/01/14 08:38:18;;;;;;;43.63;19.83;;;2.80;64.80;;;;;;4993835;28;20030;-73
2022/01/14 08:40:45;;;;;;;45.53;21.80;;;2.80;64.30;;;;;;4994201;28;20027;-73
2022/01/14 08:43:10;;;;;;;36.93;22.13;;;2.90;64.30;;;;;;4994251;28;20502;-73
2022/01/14 08:45:37;;;;;;;43.50;23.47;;;2.90;65.00;;;;;;4994114;28;20031;-74
2022/01/14 08:48:03;;;;;;;38.90;24.60;;;3.00;65.00;;;;;;4994202;28;20105;-73
2022/01/14 08:50:35;;;;;;;44.93;25.27;;;3.00;64.70;;;;;;4994341;28;20084;-74
2022/01/14 08:53:01;;;;;;;35.53;21.20;;;3.00;64.20;;;;;;4993858;28;20089;-74
2022/01/14 08:55:27;;;;;;;32.40;17.80;;;3.10;64.40;;;;;;4993881;28;20023;-74
2022/01/14 08:57:53;;;;;;;29.93;17.10;;;3.10;64.60;;;;;;4993925;28;20502;-73
2022/01/14 09:00:21;;;;;;;36.83;16.80;;;3.10;64.40;;;;;;4994245;28;20558;-73
2022/01/14 09:02:46;;;;;;;32.43;16.13;;;3.20;64.40;;;;;;4994049;28;20019;-73
2022/01/14 09:05:12;;;;;;;37.83;16.50;;;3.20;65.00;;;;;;4993929;28;20080;-73
2022/01/14 09:07:38;;;;;;;31.50;17.47;;;3.20;65.10;;;;;;4993911;28;20030;-75
2022/01/14 09:10:06;;;;;;;32.77;16.87;;;3.20;65.10;;;;;;4992797;28;20027;-73
2022/01/14 09:12:33;;;;;;;31.77;16.93;;;3.30;65.00;;;;;;4994033;28;20074;-76
2022/01/14 09:15:00;;;;;;;45.03;20.40;;;3.30;64.80;;;;;;4993891;28;20375;-74
2022/01/14 09:17:26;;;;;;;34.10;18.03;;;3.40;64.60;;;;;;4993539;28;20023;-73
2022/01/14 09:19:53;;;;;;;30.60;16.40;;;3.50;64.40;;;;;;4992467;28;20475;-75
2022/01/14 09:22:19;;;;;;;27.33;13.93;;;3.50;64.10;;;;;;4993585;28;20022;-77
2022/01/14 09:24:47;;;;;;;20.30;12.20;;;3.60;63.80;;;;;;4992980;28;20471;-76
2022/01/14 09:27:14;;;;;;;21.93;12.80;;;3.60;63.70;;;;;;4993952;28;20371;-79
2022/01/14 09:29:41;;;;;;;16.13;9.20;;;3.70;63.50;;;;;;4994006;28;20030;-75
2022/01/14 09:32:07;;;;;;;15.83;9.07;;;3.80;63.70;;;;;;4994011;28;20475;-75
2022/01/14 09:34:33;;;;;;;23.77;9.50;;;3.90;63.30;;;;;;4993852;28;20076;-75
2022/01/14 09:36:59;;;;;;;18.60;9.10;;;3.90;63.00;;;;;;4992916;28;20058;-77
2022/01/14 09:39:25;;;;;;;14.80;8.53;;;4.00;62.70;;;;;;4993347;28;20022;-77
2022/01/14 09:41:50;;;;;;;13.67;8.50;;;4.00;62.60;;;;;;4993227;28;20061;-79
2022/01/14 09:44:17;;;;;;;16.43;8.20;;;4.10;62.50;;;;;;4992342;28;20030;-79
2022/01/14 09:46:43;;;;;;;15.73;8.77;;;4.20;62.20;;;;;;4992790;28;20534;-79
2022/01/14 09:49:13;;;;;;;14.67;7.17;;;4.20;62.40;;;;;;4992510;28;20026;-79
2022/01/14 09:51:38;;;;;;;12.90;7.60;;;4.30;62.30;;;;;;4993107;28;20022;-75
2022/01/14 09:54:06;;;;;;;12.10;7.63;;;4.30;62.30;;;;;;4993274;28;20026;-78
2022/01/14 09:56:32;;;;;;;14.87;7.00;;;4.40;61.90;;;;;;4993408;28;20018;-75
2022/01/14 09:58:58;;;;;;;11.50;6.33;;;4.50;61.70;;;;;;4993764;28;20105;-77
2022/01/14 10:01:24;;;;;;;11.60;6.80;;;4.50;61.60;;;;;;4993536;28;20023;-79
2022/01/14 10:03:56;;;;;;;15.83;6.07;;;4.60;61.40;;;;;;5008572;28;20173;-78
2022/01/14 10:06:39;;;;;;;13.05;6.55;;;4.70;61.30;;;;;;4993687;28;20102;-79
2022/01/14 10:09:19;;;;;;;15.18;6.63;;;4.80;60.80;;;;;;4993553;28;20035;-79
2022/01/14 10:12:00;;;;;;;17.03;8.67;;;4.80;60.60;;;;;;4993375;28;20030;-78
2022/01/14 10:14:26;;;;;;;24.13;10.80;;;4.90;60.60;;;;;;4993452;28;20041;-79
2022/01/14 10:16:57;;;;;;;19.43;10.60;;;4.90;60.40;;;;;;4993606;28;20026;-78
2022/01/14 10:19:25;;;;;;;21.87;12.03;;;5.00;60.40;;;;;;4993840;28;20061;-75
2022/01/14 10:21:52;;;;;;;22.70;9.87;;;5.10;60.40;;;;;;4992546;28;20430;-77
2022/01/14 10:24:19;;;;;;;21.97;10.70;;;5.20;60.50;;;;;;4993357;28;20080;-75
2022/01/14 10:26:56;;;;;;;17.77;10.50;;;5.20;60.70;;;;;;4993447;28;20368;-79
2022/01/14 10:29:38;;;;;;;26.07;11.23;;;5.30;61.40;;;;;;4993482;28;20026;-75
2022/01/14 10:32:06;;;;;;;20.20;9.93;;;5.40;61.20;;;;;;4993517;28;20038;-79
2022/01/14 10:34:32;;;;;;;19.60;10.10;;;5.50;60.90;;;;;;4993321;28;20463;-79
2022/01/14 10:37:11;;;;;;;17.60;9.20;;;5.60;60.90;;;;;;4993313;28;20125;-79
2022/01/14 10:39:52;;;;;;;19.10;9.33;;;5.70;61.30;;;;;;4993428;28;20026;-77
2022/01/14 10:42:26;;;;;;;16.63;8.67;;;5.70;60.60;;;;;;4993325;28;20050;-79
2022/01/14 10:44:53;;;;;;;20.47;8.47;;;5.80;63.10;;;;;;4993033;28;20021;-75
2022/01/14 10:47:24;;;;;;;17.70;7.43;;;5.90;60.40;;;;;;4993335;28;20034;-77
2022/01/14 10:49:51;;;;;;;18.47;8.10;;;;;;;;;;4993315;28;20046;-78
2022/01/14 10:52:20;;;;;;;16.17;7.90;;;6.00;59.80;;;;;;4993092;28;20026;-75
2022/01/14 10:54:48;;;;;;;12.57;7.60;;;6.10;60.00;;;;;;4992995;28;20514;-79
2022/01/14 10:57:20;;;;;;;15.17;7.97;;;6.20;59.80;;;;;;4993111;28;20029;-78
2022/01/14 10:59:48;;;;;;;13.30;6.35;;;6.30;59.70;;;;;;4994157;28;20110;-77
2022/01/14 11:02:33;;;;;;;10.93;6.73;;;6.30;59.50;;;;;;4996345;28;20038;-77
2022/01/14 11:05:05;;;;;;;14.87;8.07;;;6.40;59.50;;;;;;4996506;28;20057;-78
2022/01/14 11:07:31;;;;;;;15.07;7.43;;;6.50;59.10;;;;;;4996539;28;20162;-78
2022/01/14 11:10:00;;;;;;;13.43;6.77;;;6.60;58.60;;;;;;4996357;28;20023;-79
2022/01/14 11:12:29;;;;;;;12.87;6.67;;;6.60;58.50;;;;;;4996395;28;20076;-77
2022/01/14 11:14:55;;;;;;;11.47;6.60;;;6.70;58.10;;;;;;4996653;28;20026;-79
2022/01/14 11:17:21;;;;;;;14.90;6.00;;;6.80;57.50;;;;;;4996156;28;20022;-77
2022/01/14 11:19:47;;;;;;;10.13;6.00;;;6.90;57.10;;;;;;4996406;28;20080;-78
2022/01/14 11:24:58;;;;;;;14.43;7.10;;;7.10;56.50;;;;;;4996089;28;20029;-79
2022/01/14 11:27:25;;;;;;;13.30;6.07;;;7.20;56.10;;;;;;4996211;28;20030;-79
2022/01/14 11:29:57;;;;;;;14.20;6.60;;;;;;;;;;4996142;28;20018;-78
2022/01/14 11:32:27;;;;;;;14.85;6.72;;;7.30;55.60;;;;;;4996011;28;20070;-79
2022/01/14 11:34:53;;;;;;;9.97;5.00;;;7.40;56.00;;;;;;4995679;28;20062;-77
2022/01/14 11:37:30;;;;;;;8.47;5.10;;;7.50;55.30;;;;;;4995904;28;20026;-79
2022/01/14 11:39:59;;;;;;;11.97;5.30;;;7.50;54.80;;;;;;4995690;28;20030;-78
2022/01/14 11:42:46;;;;;;;8.80;5.40;;;7.60;55.10;;;;;;4995666;28;20464;-76
2022/01/14 11:45:16;;;;;;;10.10;5.97;;;7.70;54.20;;;;;;4995429;28;20045;-77
2022/01/14 11:47:44;;;;;;;9.90;5.90;;;7.80;54.10;;;;;;4996176;28;20454;-79
2022/01/14 11:50:19;;;;;;;8.70;5.23;;;7.80;53.90;;;;;;4995856;28;20030;-79
2022/01/14 11:52:46;;;;;;;10.03;5.43;;;7.90;53.90;;;;;;4995567;28;20114;-75
2022/01/14 11:55:15;;;;;;;10.20;5.70;;;8.00;53.50;;;;;;4995562;28;20018;-76
2022/01/14 11:57:45;;;;;;;14.33;6.40;;;8.00;53.30;;;;;;4993378;28;20158;-78
2022/01/14 12:00:39;;;;;;;13.30;6.20;;;8.10;53.10;;;;;;4992887;28;20046;-76
2022/01/14 12:03:11;;;;;;;8.60;5.07;;;;;;;;;;4988615;28;20046;-78
2022/01/14 12:06:05;;;;;;;9.30;4.97;;;8.30;51.40;;;;;;4994251;28;20365;-77
2022/01/14 12:08:36;;;;;;;8.53;4.70;;;8.30;52.10;;;;;;4995299;28;20053;-76
2022/01/14 12:11:07;;;;;;;6.83;3.87;;;8.40;52.00;;;;;;4994837;28;20129;-78
2022/01/14 12:13:53;;;;;;;8.90;3.63;;;8.40;51.60;;;;;;4995308;28;20117;-77
2022/01/14 12:16:37;;;;;;;8.73;3.67;;;8.40;51.30;;;;;;4995569;28;20109;-77
2022/01/14 12:19:03;;;;;;;7.13;4.37;;;8.50;50.90;;;;;;4995372;28;20026;-77
2022/01/14 12:21:40;;;;;;;6.23;3.50;;;8.60;50.40;;;;;;4995211;28;20497;-78
2022/01/14 12:24:15;;;;;;;6.63;3.70;;;8.60;50.10;;;;;;4992700;28;20120;-76
2022/01/14 12:27:04;;;;;;;5.93;3.13;;;8.70;50.10;;;;;;4992424;28;20042;-78
2022/01/14 12:29:39;;;;;;;5.33;3.30;;;8.70;49.80;;;;;;4993166;28;20022;-76
2022/01/14 12:32:13;;;;;;;5.17;3.27;;;8.80;49.20;;;;;;4994594;28;20041;-78
2022/01/14 12:34:40;;;;;;;4.80;2.93;;;8.80;48.30;;;;;;5009459;23;20050;-77
2022/01/14 12:37:09;;;;;;;9.23;4.00;;;8.90;48.70;;;;;;4994734;28;20498;-73
2022/01/14 12:39:35;;;;;;;8.30;3.97;;;8.90;48.40;;;;;;4994364;28;20014;-73
2022/01/14 12:42:01;;;;;;;6.37;3.90;;;9.00;49.00;;;;;;4993492;28;20121;-79
2022/01/14 12:44:27;;;;;;;9.33;3.43;;;9.00;48.70;;;;;;5026284;28;20027;-73
2022/01/14 12:47:00;;;;;;;9.57;3.77;;;9.10;49.10;;;;;;4994453;28;20097;-73
2022/01/14 12:49:40;;;;;;;5.70;3.47;;;9.10;49.20;;;;;;4994623;28;20018;-73
2022/01/14 12:52:12;;;;;;;9.00;3.40;;;9.20;49.80;;;;;;4994491;28;20118;-73
2022/01/14 12:54:42;;;;;;;10.27;3.60;;;9.20;50.00;;;;;;4994280;28;20537;-77
2022/01/14 12:57:13;;;;;;;5.63;3.20;;;9.20;50.00;;;;;;4994648;28;20034;-74
2022/01/14 12:59:46;;;;;;;7.70;3.90;;;9.30;50.10;;;;;;4994452;28;20058;-73
2022/01/14 13:02:20;;;;;;;11.60;5.17;;;9.30;50.70;;;;;;4993990;28;20554;-79
2022/01/14 13:04:57;;;;;;;13.23;4.60;;;9.30;51.30;;;;;;4994205;28;20022;-73
2022/01/14 13:07:25;;;;;;;7.33;4.27;;;9.40;51.50;;;;;;4994255;28;20041;-72
2022/01/14 13:09:52;;;;;;;10.37;4.33;;;;;;;;;;4994445;28;20486;-73
2022/01/14 13:12:20;;;;;;;8.17;4.03;;;9.50;50.90;;;;;;4994095;28;20046;-73